Terminal Aerodrome Forecast
Issued by NWS

Home | Current Version | Previous Version | Text Only | Print | Product List | Glossary On
Versions: 1 2 3 4 5 6 7 8 9 10 11 12 13 14 15 16 17 18 19 20 21 22 23 24 25 26 27 28 29 30 31 32 33 34 35 36 37 38
000
FTUS43 KDLH 281700
TAFBRD
TAF
KBRD 281728Z 2818/2918 18006KT P6SM SKC
     FM282000 22010KT P6SM SCT050
     FM282300 VRB05KT P6SM VCSH SCT050 SCT250
     FM290100 01011G18KT P6SM VCSH FEW015 BKN050
     FM290600 03008G15KT P6SM -RA SCT007 OVC015
     FM291400 05010G18KT P6SM OVC015=

USA.gov is the U.S. government's official web portal to all federal, state and local government web resources and services.